sensor_id;sensor_type;location;lat;lon;timestamp;P1;durP1;ratioP1;P2;durP2;ratioP2
5774;SDS011;2913;51.120;6.772;2022-11-11T00:00:47;15.10;;;5.43;;
5774;SDS011;2913;51.120;6.772;2022-11-11T00:03:15;17.50;;;6.00;;
5774;SDS011;2913;51.120;6.772;2022-11-11T00:05:40;10.93;;;5.10;;
5774;SDS011;2913;51.120;6.772;2022-11-11T00:08:06;18.08;;;5.80;;
5774;SDS011;2913;51.120;6.772;2022-11-11T00:10:31;23.95;;;5.90;;
5774;SDS011;2913;51.120;6.772;2022-11-11T00:13:00;15.07;;;5.72;;
5774;SDS011;2913;51.120;6.772;2022-11-11T00:15:30;11.75;;;5.53;;
5774;SDS011;2913;51.120;6.772;2022-11-11T00:17:55;11.65;;;5.55;;
5774;SDS011;2913;51.120;6.772;2022-11-11T00:20:40;13.25;;;5.45;;
5774;SDS011;2913;51.120;6.772;2022-11-11T00:23:25;17.95;;;5.97;;
5774;SDS011;2913;51.120;6.772;2022-11-11T00:26:11;17.65;;;6.10;;
5774;SDS011;2913;51.120;6.772;2022-11-11T00:28:38;14.50;;;5.78;;
5774;SDS011;2913;51.120;6.772;2022-11-11T00:31:04;15.63;;;5.65;;
5774;SDS011;2913;51.120;6.772;2022-11-11T00:33:32;16.70;;;6.13;;
5774;SDS011;2913;51.120;6.772;2022-11-11T00:35:58;26.60;;;10.00;;
5774;SDS011;2913;51.120;6.772;2022-11-11T00:38:24;14.38;;;4.80;;
5774;SDS011;2913;51.120;6.772;2022-11-11T00:41:09;24.73;;;7.93;;
5774;SDS011;2913;51.120;6.772;2022-11-11T00:46:13;12.18;;;5.72;;
5774;SDS011;2913;51.120;6.772;2022-11-11T00:48:58;69.60;;;35.70;;
5774;SDS011;2913;51.120;6.772;2022-11-11T00:51:42;222.35;;;88.57;;
5774;SDS011;2913;51.120;6.772;2022-11-11T00:54:08;252.63;;;92.65;;
5774;SDS011;2913;51.120;6.772;2022-11-11T00:56:34;281.98;;;101.43;;
5774;SDS011;2913;51.120;6.772;2022-11-11T00:59:08;197.25;;;83.32;;
5774;SDS011;2913;51.120;6.772;2022-11-11T01:01:34;474.92;;;155.95;;
5774;SDS011;2913;51.120;6.772;2022-11-11T01:04:01;460.10;;;151.23;;
5774;SDS011;2913;51.120;6.772;2022-11-11T01:06:27;91.43;;;39.75;;
5774;SDS011;2913;51.120;6.772;2022-11-11T01:08:55;14.52;;;6.30;;
5774;SDS011;2913;51.120;6.772;2022-11-11T01:11:28;12.68;;;6.95;;
5774;SDS011;2913;51.120;6.772;2022-11-11T01:13:53;19.45;;;5.95;;
5774;SDS011;2913;51.120;6.772;2022-11-11T01:16:20;23.95;;;7.18;;
5774;SDS011;2913;51.120;6.772;2022-11-11T01:18:48;13.80;;;6.72;;
5774;SDS011;2913;51.120;6.772;2022-11-11T01:21:16;14.43;;;6.35;;
5774;SDS011;2913;51.120;6.772;2022-11-11T01:23:44;18.42;;;7.20;;
5774;SDS011;2913;51.120;6.772;2022-11-11T01:28:40;15.30;;;6.65;;
5774;SDS011;2913;51.120;6.772;2022-11-11T01:31:07;17.75;;;7.10;;
5774;SDS011;2913;51.120;6.772;2022-11-11T01:33:34;14.45;;;5.97;;
5774;SDS011;2913;51.120;6.772;2022-11-11T01:36:04;17.60;;;7.50;;
5774;SDS011;2913;51.120;6.772;2022-11-11T01:38:29;18.25;;;7.40;;
5774;SDS011;2913;51.120;6.772;2022-11-11T01:40:55;26.70;;;8.40;;
5774;SDS011;2913;51.120;6.772;2022-11-11T01:43:23;20.65;;;7.63;;
5774;SDS011;2913;51.120;6.772;2022-11-11T01:45:56;17.45;;;7.70;;
5774;SDS011;2913;51.120;6.772;2022-11-11T01:48:26;18.45;;;7.68;;
5774;SDS011;2913;51.120;6.772;2022-11-11T01:54:21;19.85;;;8.75;;
5774;SDS011;2913;51.120;6.772;2022-11-11T01:56:49;20.83;;;7.40;;
5774;SDS011;2913;51.120;6.772;2022-11-11T01:59:25;21.90;;;8.82;;
5774;SDS011;2913;51.120;6.772;2022-11-11T02:01:56;18.15;;;7.32;;
5774;SDS011;2913;51.120;6.772;2022-11-11T02:04:23;18.35;;;7.75;;
5774;SDS011;2913;51.120;6.772;2022-11-11T02:07:08;22.98;;;8.48;;
5774;SDS011;2913;51.120;6.772;2022-11-11T02:09:35;20.15;;;7.88;;
5774;SDS011;2913;51.120;6.772;2022-11-11T02:12:08;15.63;;;7.15;;
5774;SDS011;2913;51.120;6.772;2022-11-11T02:14:53;18.45;;;8.30;;
5774;SDS011;2913;51.120;6.772;2022-11-11T02:17:22;16.15;;;7.93;;
5774;SDS011;2913;51.120;6.772;2022-11-11T02:19:55;24.60;;;8.68;;
5774;SDS011;2913;51.120;6.772;2022-11-11T02:25:10;17.50;;;7.43;;
5774;SDS011;2913;51.120;6.772;2022-11-11T02:27:42;17.92;;;7.45;;
5774;SDS011;2913;51.120;6.772;2022-11-11T02:30:11;22.08;;;8.15;;
5774;SDS011;2913;51.120;6.772;2022-11-11T02:32:41;20.33;;;8.63;;
5774;SDS011;2913;51.120;6.772;2022-11-11T02:35:18;18.40;;;7.88;;
5774;SDS011;2913;51.120;6.772;2022-11-11T02:38:10;23.23;;;7.97;;
5774;SDS011;2913;51.120;6.772;2022-11-11T02:40:40;22.50;;;8.57;;
5774;SDS011;2913;51.120;6.772;2022-11-11T02:43:25;17.90;;;7.35;;
5774;SDS011;2913;51.120;6.772;2022-11-11T02:45:52;17.45;;;8.32;;
5774;SDS011;2913;51.120;6.772;2022-11-11T02:48:17;19.90;;;8.38;;
5774;SDS011;2913;51.120;6.772;2022-11-11T02:50:43;17.92;;;8.77;;
5774;SDS011;2913;51.120;6.772;2022-11-11T02:53:08;19.67;;;6.97;;
5774;SDS011;2913;51.120;6.772;2022-11-11T02:55:34;15.75;;;7.30;;
5774;SDS011;2913;51.120;6.772;2022-11-11T02:58:00;21.23;;;8.45;;
5774;SDS011;2913;51.120;6.772;2022-11-11T03:00:25;13.10;;;7.55;;
5774;SDS011;2913;51.120;6.772;2022-11-11T03:02:53;19.98;;;7.82;;
5774;SDS011;2913;51.120;6.772;2022-11-11T03:05:19;19.65;;;7.85;;
5774;SDS011;2913;51.120;6.772;2022-11-11T03:07:45;18.15;;;7.90;;
5774;SDS011;2913;51.120;6.772;2022-11-11T03:10:10;19.88;;;7.53;;
5774;SDS011;2913;51.120;6.772;2022-11-11T03:12:36;19.48;;;8.85;;
5774;SDS011;2913;51.120;6.772;2022-11-11T03:15:02;24.40;;;8.75;;
5774;SDS011;2913;51.120;6.772;2022-11-11T03:17:28;18.23;;;7.35;;
5774;SDS011;2913;51.120;6.772;2022-11-11T03:20:03;21.05;;;8.13;;
5774;SDS011;2913;51.120;6.772;2022-11-11T03:23:08;13.77;;;6.53;;
5774;SDS011;2913;51.120;6.772;2022-11-11T03:25:41;21.77;;;7.57;;
5774;SDS011;2913;51.120;6.772;2022-11-11T03:28:11;22.58;;;8.43;;
5774;SDS011;2913;51.120;6.772;2022-11-11T03:30:41;20.17;;;7.82;;
5774;SDS011;2913;51.120;6.772;2022-11-11T03:33:11;15.73;;;7.07;;
5774;SDS011;2913;51.120;6.772;2022-11-11T03:35:45;20.65;;;8.23;;
5774;SDS011;2913;51.120;6.772;2022-11-11T03:38:13;16.75;;;7.53;;
5774;SDS011;2913;51.120;6.772;2022-11-11T03:40:51;15.32;;;7.22;;
5774;SDS011;2913;51.120;6.772;2022-11-11T03:43:19;22.77;;;7.60;;
5774;SDS011;2913;51.120;6.772;2022-11-11T03:45:46;20.42;;;7.43;;
5774;SDS011;2913;51.120;6.772;2022-11-11T03:48:12;24.45;;;9.25;;
5774;SDS011;2913;51.120;6.772;2022-11-11T03:50:39;18.77;;;7.50;;
5774;SDS011;2913;51.120;6.772;2022-11-11T03:53:05;20.98;;;8.13;;
5774;SDS011;2913;51.120;6.772;2022-11-11T03:55:31;15.95;;;6.93;;
5774;SDS011;2913;51.120;6.772;2022-11-11T03:57:59;18.10;;;7.57;;
5774;SDS011;2913;51.120;6.772;2022-11-11T04:00:25;17.15;;;6.35;;
5774;SDS011;2913;51.120;6.772;2022-11-11T04:03:13;17.08;;;7.82;;
5774;SDS011;2913;51.120;6.772;2022-11-11T04:06:01;25.80;;;8.23;;
5774;SDS011;2913;51.120;6.772;2022-11-11T04:08:46;19.52;;;7.78;;
5774;SDS011;2913;51.120;6.772;2022-11-11T04:11:35;21.20;;;7.90;;
5774;SDS011;2913;51.120;6.772;2022-11-11T04:14:10;19.80;;;8.00;;
5774;SDS011;2913;51.120;6.772;2022-11-11T04:16:56;15.93;;;7.95;;
5774;SDS011;2913;51.120;6.772;2022-11-11T04:19:22;16.83;;;7.13;;
5774;SDS011;2913;51.120;6.772;2022-11-11T04:22:06;20.00;;;7.65;;
5774;SDS011;2913;51.120;6.772;2022-11-11T04:24:32;19.65;;;7.63;;
5774;SDS011;2913;51.120;6.772;2022-11-11T04:27:17;22.38;;;7.35;;
5774;SDS011;2913;51.120;6.772;2022-11-11T04:29:44;14.88;;;8.10;;
5774;SDS011;2913;51.120;6.772;2022-11-11T04:32:15;20.08;;;7.43;;
5774;SDS011;2913;51.120;6.772;2022-11-11T04:35:06;18.80;;;7.28;;
5774;SDS011;2913;51.120;6.772;2022-11-11T04:37:36;16.48;;;7.43;;
5774;SDS011;2913;51.120;6.772;2022-11-11T04:40:10;15.75;;;7.13;;
5774;SDS011;2913;51.120;6.772;2022-11-11T04:42:54;13.48;;;6.72;;
5774;SDS011;2913;51.120;6.772;2022-11-11T04:45:20;19.20;;;7.57;;
5774;SDS011;2913;51.120;6.772;2022-11-11T04:48:01;20.48;;;7.18;;
5774;SDS011;2913;51.120;6.772;2022-11-11T04:52:59;20.08;;;8.07;;
5774;SDS011;2913;51.120;6.772;2022-11-11T04:55:28;24.55;;;7.60;;
5774;SDS011;2913;51.120;6.772;2022-11-11T04:58:12;26.77;;;7.97;;
5774;SDS011;2913;51.120;6.772;2022-11-11T05:00:39;15.95;;;7.57;;
5774;SDS011;2913;51.120;6.772;2022-11-11T05:03:04;19.95;;;7.78;;
5774;SDS011;2913;51.120;6.772;2022-11-11T05:05:39;22.65;;;7.72;;
5774;SDS011;2913;51.120;6.772;2022-11-11T05:08:24;22.90;;;7.45;;
5774;SDS011;2913;51.120;6.772;2022-11-11T05:11:09;20.23;;;7.82;;
5774;SDS011;2913;51.120;6.772;2022-11-11T05:13:34;22.55;;;8.07;;
5774;SDS011;2913;51.120;6.772;2022-11-11T05:16:19;15.73;;;7.13;;
5774;SDS011;2913;51.120;6.772;2022-11-11T05:19:08;19.55;;;7.50;;
5774;SDS011;2913;51.120;6.772;2022-11-11T05:21:53;24.60;;;8.18;;
5774;SDS011;2913;51.120;6.772;2022-11-11T05:24:22;17.80;;;7.13;;
5774;SDS011;2913;51.120;6.772;2022-11-11T05:27:06;18.98;;;7.40;;
5774;SDS011;2913;51.120;6.772;2022-11-11T05:29:34;14.70;;;6.15;;
5774;SDS011;2913;51.120;6.772;2022-11-11T05:32:02;18.48;;;7.80;;
5774;SDS011;2913;51.120;6.772;2022-11-11T05:34:31;15.27;;;6.53;;
5774;SDS011;2913;51.120;6.772;2022-11-11T05:36:56;24.92;;;8.30;;
5774;SDS011;2913;51.120;6.772;2022-11-11T05:39:27;15.90;;;6.18;;
5774;SDS011;2913;51.120;6.772;2022-11-11T05:41:55;18.23;;;7.18;;
5774;SDS011;2913;51.120;6.772;2022-11-11T05:44:25;25.73;;;8.07;;
5774;SDS011;2913;51.120;6.772;2022-11-11T05:46:51;17.38;;;7.50;;
5774;SDS011;2913;51.120;6.772;2022-11-11T05:49:16;20.27;;;8.95;;
5774;SDS011;2913;51.120;6.772;2022-11-11T05:51:42;20.60;;;7.65;;
5774;SDS011;2913;51.120;6.772;2022-11-11T05:54:09;18.17;;;7.10;;
5774;SDS011;2913;51.120;6.772;2022-11-11T05:56:37;21.17;;;7.47;;
5774;SDS011;2913;51.120;6.772;2022-11-11T05:59:03;17.90;;;6.80;;
5774;SDS011;2913;51.120;6.772;2022-11-11T06:01:29;18.33;;;7.40;;
5774;SDS011;2913;51.120;6.772;2022-11-11T06:03:55;22.52;;;8.77;;
5774;SDS011;2913;51.120;6.772;2022-11-11T06:06:21;17.38;;;7.75;;
5774;SDS011;2913;51.120;6.772;2022-11-11T06:08:46;22.65;;;8.10;;
5774;SDS011;2913;51.120;6.772;2022-11-11T06:11:12;17.20;;;7.25;;
5774;SDS011;2913;51.120;6.772;2022-11-11T06:13:40;20.25;;;8.02;;
5774;SDS011;2913;51.120;6.772;2022-11-11T06:16:08;23.60;;;8.68;;
5774;SDS011;2913;51.120;6.772;2022-11-11T06:18:34;20.20;;;8.50;;
5774;SDS011;2913;51.120;6.772;2022-11-11T06:20:59;21.00;;;7.93;;
5774;SDS011;2913;51.120;6.772;2022-11-11T06:23:25;21.48;;;7.80;;
5774;SDS011;2913;51.120;6.772;2022-11-11T06:25:52;18.25;;;8.18;;
5774;SDS011;2913;51.120;6.772;2022-11-11T06:28:37;22.30;;;8.25;;
5774;SDS011;2913;51.120;6.772;2022-11-11T06:31:03;18.42;;;7.70;;
5774;SDS011;2913;51.120;6.772;2022-11-11T06:33:32;18.92;;;7.75;;
5774;SDS011;2913;51.120;6.772;2022-11-11T06:36:03;23.10;;;8.25;;
5774;SDS011;2913;51.120;6.772;2022-11-11T06:38:29;19.45;;;7.72;;
5774;SDS011;2913;51.120;6.772;2022-11-11T06:40:55;20.77;;;7.88;;
5774;SDS011;2913;51.120;6.772;2022-11-11T06:43:21;17.95;;;7.28;;
5774;SDS011;2913;51.120;6.772;2022-11-11T06:45:51;18.35;;;8.43;;
5774;SDS011;2913;51.120;6.772;2022-11-11T06:48:18;16.83;;;7.85;;
5774;SDS011;2913;51.120;6.772;2022-11-11T06:50:44;22.15;;;8.65;;
5774;SDS011;2913;51.120;6.772;2022-11-11T06:53:11;20.17;;;7.82;;
5774;SDS011;2913;51.120;6.772;2022-11-11T06:55:38;29.55;;;9.15;;
5774;SDS011;2913;51.120;6.772;2022-11-11T06:58:11;21.88;;;8.15;;
5774;SDS011;2913;51.120;6.772;2022-11-11T07:00:38;19.88;;;7.72;;
5774;SDS011;2913;51.120;6.772;2022-11-11T07:03:08;19.27;;;8.27;;
5774;SDS011;2913;51.120;6.772;2022-11-11T07:05:35;23.88;;;8.07;;
5774;SDS011;2913;51.120;6.772;2022-11-11T07:08:03;19.45;;;7.75;;
5774;SDS011;2913;51.120;6.772;2022-11-11T07:10:32;27.23;;;8.02;;
5774;SDS011;2913;51.120;6.772;2022-11-11T07:12:58;17.50;;;8.75;;
5774;SDS011;2913;51.120;6.772;2022-11-11T07:15:24;30.98;;;8.73;;
5774;SDS011;2913;51.120;6.772;2022-11-11T07:17:53;17.90;;;6.97;;
5774;SDS011;2913;51.120;6.772;2022-11-11T07:20:23;14.93;;;6.95;;
5774;SDS011;2913;51.120;6.772;2022-11-11T07:22:51;22.48;;;8.23;;
5774;SDS011;2913;51.120;6.772;2022-11-11T07:25:17;21.45;;;7.60;;
5774;SDS011;2913;51.120;6.772;2022-11-11T07:27:42;18.83;;;8.57;;
5774;SDS011;2913;51.120;6.772;2022-11-11T07:30:09;19.27;;;8.88;;
5774;SDS011;2913;51.120;6.772;2022-11-11T07:32:47;22.92;;;8.63;;
5774;SDS011;2913;51.120;6.772;2022-11-11T07:35:16;18.42;;;8.38;;
5774;SDS011;2913;51.120;6.772;2022-11-11T07:37:43;22.90;;;8.10;;
5774;SDS011;2913;51.120;6.772;2022-11-11T07:40:10;21.10;;;6.95;;
5774;SDS011;2913;51.120;6.772;2022-11-11T07:42:38;20.65;;;8.18;;
5774;SDS011;2913;51.120;6.772;2022-11-11T07:45:04;20.17;;;8.27;;
5774;SDS011;2913;51.120;6.772;2022-11-11T07:47:32;20.92;;;7.53;;
5774;SDS011;2913;51.120;6.772;2022-11-11T07:50:01;15.07;;;6.75;;
5774;SDS011;2913;51.120;6.772;2022-11-11T07:52:28;27.80;;;8.93;;
5774;SDS011;2913;51.120;6.772;2022-11-11T07:54:53;19.17;;;7.75;;
5774;SDS011;2913;51.120;6.772;2022-11-11T07:57:19;25.40;;;9.15;;
5774;SDS011;2913;51.120;6.772;2022-11-11T07:59:45;19.88;;;7.63;;
5774;SDS011;2913;51.120;6.772;2022-11-11T08:02:11;18.45;;;7.57;;
5774;SDS011;2913;51.120;6.772;2022-11-11T08:04:40;23.70;;;8.02;;
5774;SDS011;2913;51.120;6.772;2022-11-11T08:07:06;24.80;;;8.32;;
5774;SDS011;2913;51.120;6.772;2022-11-11T08:09:31;19.55;;;8.15;;
5774;SDS011;2913;51.120;6.772;2022-11-11T08:11:57;23.88;;;8.60;;
5774;SDS011;2913;51.120;6.772;2022-11-11T08:14:41;19.65;;;7.47;;
5774;SDS011;2913;51.120;6.772;2022-11-11T08:17:07;24.73;;;8.40;;
5774;SDS011;2913;51.120;6.772;2022-11-11T08:19:35;20.70;;;8.68;;
5774;SDS011;2913;51.120;6.772;2022-11-11T08:22:00;20.50;;;8.77;;
5774;SDS011;2913;51.120;6.772;2022-11-11T08:24:29;20.52;;;8.18;;
5774;SDS011;2913;51.120;6.772;2022-11-11T08:26:54;25.48;;;8.82;;
5774;SDS011;2913;51.120;6.772;2022-11-11T08:29:20;22.08;;;8.38;;
5774;SDS011;2913;51.120;6.772;2022-11-11T08:31:46;16.67;;;7.43;;
5774;SDS011;2913;51.120;6.772;2022-11-11T08:34:11;18.60;;;8.65;;
5774;SDS011;2913;51.120;6.772;2022-11-11T08:36:37;19.90;;;8.65;;
5774;SDS011;2913;51.120;6.772;2022-11-11T08:39:03;28.40;;;8.27;;
5774;SDS011;2913;51.120;6.772;2022-11-11T08:41:29;25.88;;;8.45;;
5774;SDS011;2913;51.120;6.772;2022-11-11T08:43:57;22.02;;;8.27;;
5774;SDS011;2913;51.120;6.772;2022-11-11T08:46:27;24.55;;;7.70;;
5774;SDS011;2913;51.120;6.772;2022-11-11T08:48:53;17.42;;;8.13;;
5774;SDS011;2913;51.120;6.772;2022-11-11T08:51:18;22.08;;;8.55;;
5774;SDS011;2913;51.120;6.772;2022-11-11T08:53:47;26.55;;;8.25;;
5774;SDS011;2913;51.120;6.772;2022-11-11T08:56:12;26.65;;;9.20;;
5774;SDS011;2913;51.120;6.772;2022-11-11T08:58:40;25.23;;;8.50;;
5774;SDS011;2913;51.120;6.772;2022-11-11T09:01:09;25.52;;;7.95;;
5774;SDS011;2913;51.120;6.772;2022-11-11T09:03:43;13.77;;;6.43;;
5774;SDS011;2913;51.120;6.772;2022-11-11T09:06:10;21.45;;;8.48;;
5774;SDS011;2913;51.120;6.772;2022-11-11T09:08:40;19.00;;;8.07;;
5774;SDS011;2913;51.120;6.772;2022-11-11T09:11:09;17.02;;;7.82;;
5774;SDS011;2913;51.120;6.772;2022-11-11T09:13:34;24.92;;;8.75;;
5774;SDS011;2913;51.120;6.772;2022-11-11T09:16:00;21.63;;;7.00;;
5774;SDS011;2913;51.120;6.772;2022-11-11T09:18:26;19.65;;;7.38;;
5774;SDS011;2913;51.120;6.772;2022-11-11T09:20:51;17.20;;;7.80;;
5774;SDS011;2913;51.120;6.772;2022-11-11T09:23:23;28.90;;;8.38;;
5774;SDS011;2913;51.120;6.772;2022-11-11T09:25:49;19.42;;;7.32;;
5774;SDS011;2913;51.120;6.772;2022-11-11T09:28:17;18.80;;;7.88;;
5774;SDS011;2913;51.120;6.772;2022-11-11T09:30:43;21.30;;;7.28;;
5774;SDS011;2913;51.120;6.772;2022-11-11T09:33:08;17.83;;;7.07;;
5774;SDS011;2913;51.120;6.772;2022-11-11T09:35:36;23.83;;;7.88;;
5774;SDS011;2913;51.120;6.772;2022-11-11T09:38:02;17.38;;;7.82;;
5774;SDS011;2913;51.120;6.772;2022-11-11T09:40:34;12.27;;;6.18;;
5774;SDS011;2913;51.120;6.772;2022-11-11T09:51:14;18.30;;;7.72;;
5774;SDS011;2913;51.120;6.772;2022-11-11T09:53:46;21.20;;;7.13;;
5774;SDS011;2913;51.120;6.772;2022-11-11T09:56:21;22.75;;;7.82;;
5774;SDS011;2913;51.120;6.772;2022-11-11T09:58:56;25.08;;;8.23;;
5774;SDS011;2913;51.120;6.772;2022-11-11T10:01:45;20.30;;;7.20;;
5774;SDS011;2913;51.120;6.772;2022-11-11T10:04:19;17.85;;;7.40;;
5774;SDS011;2913;51.120;6.772;2022-11-11T10:06:54;21.50;;;6.43;;
5774;SDS011;2913;51.120;6.772;2022-11-11T10:09:33;24.60;;;7.40;;
5774;SDS011;2913;51.120;6.772;2022-11-11T10:12:10;23.45;;;7.45;;
5774;SDS011;2913;51.120;6.772;2022-11-11T10:14:39;14.48;;;6.75;;
5774;SDS011;2913;51.120;6.772;2022-11-11T10:20:02;13.35;;;6.15;;
5774;SDS011;2913;51.120;6.772;2022-11-11T10:22:33;21.98;;;7.13;;
5774;SDS011;2913;51.120;6.772;2022-11-11T10:27:48;15.82;;;6.30;;
5774;SDS011;2913;51.120;6.772;2022-11-11T10:30:26;15.00;;;6.55;;
5774;SDS011;2913;51.120;6.772;2022-11-11T10:33:14;16.27;;;6.95;;
5774;SDS011;2913;51.120;6.772;2022-11-11T10:35:43;20.38;;;6.28;;
5774;SDS011;2913;51.120;6.772;2022-11-11T10:41:12;15.05;;;6.38;;
5774;SDS011;2913;51.120;6.772;2022-11-11T10:43:49;16.08;;;6.25;;
5774;SDS011;2913;51.120;6.772;2022-11-11T10:46:18;12.13;;;5.88;;
5774;SDS011;2913;51.120;6.772;2022-11-11T10:51:24;13.98;;;6.22;;
5774;SDS011;2913;51.120;6.772;2022-11-11T10:56:39;17.45;;;5.88;;
5774;SDS011;2913;51.120;6.772;2022-11-11T10:59:12;16.33;;;6.20;;
5774;SDS011;2913;51.120;6.772;2022-11-11T11:01:51;17.55;;;5.03;;
5774;SDS011;2913;51.120;6.772;2022-11-11T11:06:49;22.35;;;6.10;;
5774;SDS011;2913;51.120;6.772;2022-11-11T11:09:24;22.25;;;6.60;;
5774;SDS011;2913;51.120;6.772;2022-11-11T11:11:58;16.85;;;5.93;;
5774;SDS011;2913;51.120;6.772;2022-11-11T11:14:33;20.50;;;6.32;;
5774;SDS011;2913;51.120;6.772;2022-11-11T11:17:06;31.65;;;5.95;;
5774;SDS011;2913;51.120;6.772;2022-11-11T11:19:39;21.02;;;5.25;;
5774;SDS011;2913;51.120;6.772;2022-11-11T11:22:05;11.68;;;5.20;;
5774;SDS011;2913;51.120;6.772;2022-11-11T11:24:34;12.63;;;5.00;;
5774;SDS011;2913;51.120;6.772;2022-11-11T11:27:04;19.55;;;5.28;;
5774;SDS011;2913;51.120;6.772;2022-11-11T11:29:35;15.88;;;5.07;;
5774;SDS011;2913;51.120;6.772;2022-11-11T11:34:55;16.35;;;5.07;;
5774;SDS011;2913;51.120;6.772;2022-11-11T11:37:25;11.52;;;5.20;;
5774;SDS011;2913;51.120;6.772;2022-11-11T11:40:01;13.10;;;5.13;;
5774;SDS011;2913;51.120;6.772;2022-11-11T11:42:32;10.73;;;4.65;;
5774;SDS011;2913;51.120;6.772;2022-11-11T11:50:23;12.10;;;4.57;;
5774;SDS011;2913;51.120;6.772;2022-11-11T11:55:27;10.20;;;4.60;;
5774;SDS011;2913;51.120;6.772;2022-11-11T11:58:15;21.50;;;5.30;;
5774;SDS011;2913;51.120;6.772;2022-11-11T12:01:02;13.15;;;4.57;;
5774;SDS011;2913;51.120;6.772;2022-11-11T12:12:27;12.07;;;4.30;;
5774;SDS011;2913;51.120;6.772;2022-11-11T12:21:00;12.98;;;4.35;;
5774;SDS011;2913;51.120;6.772;2022-11-11T12:23:57;10.50;;;4.10;;
5774;SDS011;2913;51.120;6.772;2022-11-11T12:29:43;13.63;;;3.55;;
5774;SDS011;2913;51.120;6.772;2022-11-11T12:45:47;9.10;;;3.17;;
5774;SDS011;2913;51.120;6.772;2022-11-11T13:04:46;6.97;;;2.70;;
5774;SDS011;2913;51.120;6.772;2022-11-11T13:07:35;7.28;;;2.83;;
5774;SDS011;2913;51.120;6.772;2022-11-11T13:10:21;9.07;;;2.90;;
5774;SDS011;2913;51.120;6.772;2022-11-11T13:15:40;7.95;;;2.75;;
5774;SDS011;2913;51.120;6.772;2022-11-11T13:18:13;10.30;;;2.50;;
5774;SDS011;2913;51.120;6.772;2022-11-11T13:21:00;23.52;;;3.20;;
5774;SDS011;2913;51.120;6.772;2022-11-11T13:23:29;9.50;;;2.78;;
5774;SDS011;2913;51.120;6.772;2022-11-11T13:25:56;11.55;;;2.67;;
5774;SDS011;2913;51.120;6.772;2022-11-11T13:28:32;12.15;;;3.30;;
5774;SDS011;2913;51.120;6.772;2022-11-11T13:31:14;9.63;;;2.47;;
5774;SDS011;2913;51.120;6.772;2022-11-11T13:33:49;11.57;;;2.42;;
5774;SDS011;2913;51.120;6.772;2022-11-11T13:38:54;6.20;;;2.22;;
5774;SDS011;2913;51.120;6.772;2022-11-11T13:41:25;7.68;;;2.88;;
5774;SDS011;2913;51.120;6.772;2022-11-11T13:43:59;6.87;;;3.50;;
5774;SDS011;2913;51.120;6.772;2022-11-11T13:46:39;7.47;;;2.53;;
5774;SDS011;2913;51.120;6.772;2022-11-11T13:49:24;8.98;;;2.55;;
5774;SDS011;2913;51.120;6.772;2022-11-11T13:51:57;4.50;;;2.40;;
5774;SDS011;2913;51.120;6.772;2022-11-11T13:57:05;6.25;;;2.47;;
5774;SDS011;2913;51.120;6.772;2022-11-11T13:59:41;6.20;;;1.90;;
5774;SDS011;2913;51.120;6.772;2022-11-11T14:12:44;7.65;;;2.50;;
5774;SDS011;2913;51.120;6.772;2022-11-11T14:15:32;5.53;;;2.13;;
5774;SDS011;2913;51.120;6.772;2022-11-11T14:20:43;5.97;;;2.22;;
5774;SDS011;2913;51.120;6.772;2022-11-11T14:33:48;10.55;;;2.53;;
5774;SDS011;2913;51.120;6.772;2022-11-11T14:36:41;8.35;;;2.83;;
5774;SDS011;2913;51.120;6.772;2022-11-11T14:41:55;6.45;;;1.90;;
5774;SDS011;2913;51.120;6.772;2022-11-11T15:00:00;11.15;;;2.22;;
5774;SDS011;2913;51.120;6.772;2022-11-11T15:02:32;23.88;;;2.53;;
5774;SDS011;2913;51.120;6.772;2022-11-11T15:05:00;5.32;;;2.17;;
5774;SDS011;2913;51.120;6.772;2022-11-11T15:15:21;8.48;;;1.58;;
5774;SDS011;2913;51.120;6.772;2022-11-11T15:23:23;7.50;;;1.83;;
5774;SDS011;2913;51.120;6.772;2022-11-11T15:36:55;7.30;;;1.90;;
5774;SDS011;2913;51.120;6.772;2022-11-11T15:39:24;6.13;;;1.50;;
5774;SDS011;2913;51.120;6.772;2022-11-11T15:41:57;2.60;;;1.60;;
5774;SDS011;2913;51.120;6.772;2022-11-11T15:44:24;4.30;;;1.67;;
5774;SDS011;2913;51.120;6.772;2022-11-11T15:46:55;57.42;;;18.90;;
5774;SDS011;2913;51.120;6.772;2022-11-11T15:52:30;3.13;;;1.50;;
5774;SDS011;2913;51.120;6.772;2022-11-11T15:54:58;6.50;;;2.17;;
5774;SDS011;2913;51.120;6.772;2022-11-11T15:57:27;11.52;;;2.78;;
5774;SDS011;2913;51.120;6.772;2022-11-11T16:00:02;12.40;;;4.22;;
5774;SDS011;2913;51.120;6.772;2022-11-11T16:02:44;56.00;;;19.15;;
5774;SDS011;2913;51.120;6.772;2022-11-11T16:05:25;21.20;;;8.63;;
5774;SDS011;2913;51.120;6.772;2022-11-11T16:08:00;17.42;;;7.32;;
5774;SDS011;2913;51.120;6.772;2022-11-11T16:10:32;9.95;;;4.05;;
5774;SDS011;2913;51.120;6.772;2022-11-11T16:15:49;8.35;;;3.70;;
5774;SDS011;2913;51.120;6.772;2022-11-11T16:18:20;4.97;;;2.17;;
5774;SDS011;2913;51.120;6.772;2022-11-11T16:23:28;4.03;;;2.00;;
5774;SDS011;2913;51.120;6.772;2022-11-11T16:25:55;6.05;;;2.17;;
5774;SDS011;2913;51.120;6.772;2022-11-11T16:28:25;6.57;;;2.30;;
5774;SDS011;2913;51.120;6.772;2022-11-11T16:31:50;12.15;;;3.00;;
5774;SDS011;2913;51.120;6.772;2022-11-11T16:33:54;10.23;;;2.22;;
5774;SDS011;2913;51.120;6.772;2022-11-11T16:36:22;5.38;;;2.25;;
5774;SDS011;2913;51.120;6.772;2022-11-11T16:38:50;6.72;;;2.30;;
5774;SDS011;2913;51.120;6.772;2022-11-11T16:41:29;7.43;;;2.80;;
5774;SDS011;2913;51.120;6.772;2022-11-11T16:43:56;11.18;;;4.25;;
5774;SDS011;2913;51.120;6.772;2022-11-11T16:46:45;9.63;;;4.47;;
5774;SDS011;2913;51.120;6.772;2022-11-11T16:54:38;9.80;;;3.50;;
5774;SDS011;2913;51.120;6.772;2022-11-11T16:57:26;10.43;;;5.20;;
5774;SDS011;2913;51.120;6.772;2022-11-11T16:59:56;10.13;;;6.53;;
5774;SDS011;2913;51.120;6.772;2022-11-11T17:02:25;17.90;;;7.28;;
5774;SDS011;2913;51.120;6.772;2022-11-11T17:04:52;10.57;;;4.13;;
5774;SDS011;2913;51.120;6.772;2022-11-11T17:07:29;11.25;;;3.90;;
5774;SDS011;2913;51.120;6.772;2022-11-11T17:12:40;9.88;;;4.05;;
5774;SDS011;2913;51.120;6.772;2022-11-11T17:15:10;14.52;;;5.13;;
5774;SDS011;2913;51.120;6.772;2022-11-11T17:17:37;14.18;;;7.15;;
5774;SDS011;2913;51.120;6.772;2022-11-11T17:22:57;12.02;;;5.75;;
5774;SDS011;2913;51.120;6.772;2022-11-11T17:25:25;12.68;;;5.43;;
5774;SDS011;2913;51.120;6.772;2022-11-11T17:27:50;12.82;;;5.57;;
5774;SDS011;2913;51.120;6.772;2022-11-11T17:30:16;7.95;;;3.92;;
5774;SDS011;2913;51.120;6.772;2022-11-11T17:32:45;6.97;;;3.03;;
5774;SDS011;2913;51.120;6.772;2022-11-11T17:35:12;9.70;;;3.03;;
5774;SDS011;2913;51.120;6.772;2022-11-11T17:37:37;10.48;;;3.45;;
5774;SDS011;2913;51.120;6.772;2022-11-11T17:40:06;8.93;;;4.18;;
5774;SDS011;2913;51.120;6.772;2022-11-11T17:42:33;10.63;;;3.80;;
5774;SDS011;2913;51.120;6.772;2022-11-11T17:45:04;12.57;;;4.53;;
5774;SDS011;2913;51.120;6.772;2022-11-11T17:47:36;14.60;;;5.80;;
5774;SDS011;2913;51.120;6.772;2022-11-11T17:50:04;7.18;;;3.00;;
5774;SDS011;2913;51.120;6.772;2022-11-11T17:52:32;9.38;;;3.00;;
5774;SDS011;2913;51.120;6.772;2022-11-11T17:54:57;4.85;;;2.70;;
5774;SDS011;2913;51.120;6.772;2022-11-11T17:57:23;9.07;;;2.65;;
5774;SDS011;2913;51.120;6.772;2022-11-11T17:59:48;6.57;;;3.17;;
5774;SDS011;2913;51.120;6.772;2022-11-11T18:02:14;11.95;;;3.85;;
5774;SDS011;2913;51.120;6.772;2022-11-11T18:04:43;7.93;;;3.30;;
5774;SDS011;2913;51.120;6.772;2022-11-11T18:07:09;9.02;;;3.90;;
5774;SDS011;2913;51.120;6.772;2022-11-11T18:09:35;7.25;;;3.22;;
5774;SDS011;2913;51.120;6.772;2022-11-11T18:12:00;8.57;;;3.03;;
5774;SDS011;2913;51.120;6.772;2022-11-11T18:14:26;11.32;;;3.63;;
5774;SDS011;2913;51.120;6.772;2022-11-11T18:16:52;7.25;;;3.38;;
5774;SDS011;2913;51.120;6.772;2022-11-11T18:19:17;11.02;;;3.85;;
5774;SDS011;2913;51.120;6.772;2022-11-11T18:21:45;6.75;;;3.08;;
5774;SDS011;2913;51.120;6.772;2022-11-11T18:24:13;11.23;;;3.72;;
5774;SDS011;2913;51.120;6.772;2022-11-11T18:26:39;9.02;;;3.88;;
5774;SDS011;2913;51.120;6.772;2022-11-11T18:29:07;9.00;;;3.63;;
5774;SDS011;2913;51.120;6.772;2022-11-11T18:31:36;7.97;;;3.47;;
5774;SDS011;2913;51.120;6.772;2022-11-11T18:34:02;11.27;;;3.90;;
5774;SDS011;2913;51.120;6.772;2022-11-11T18:36:30;12.93;;;4.13;;